Owen, WI (54460)

8:57 PM CDT on July 23, 2016 (GMT -0500)
Backyard, N. Andrews Ave | | Change Station

Elev 1161 ft 44.77 °N, 90.60 °W | Updated 4 seconds ago

Overcast
Overcast
69.4 °F
Feels Like 69.4 °F
N
0.0
Wind Variable Wind from North
Gusts 0.0 mph

Today
High -- | Low -- °F
--% Chance of Precip.
Yesterday
High -- | Low -- °F
Precip. -- in
Pressure 29.89 in
Visibility 10.0 miles
Clouds Mostly Cloudy 4800 ft
Overcast 7000 ft
Dew Point 68 °F
Humidity 94%
Rainfall 0.07 in
Snow Depth Not available.
5:38 AM 8:38 PM
Waning Gibbous, 81% visible
METAR KMDZ 240135Z AUTO 20003KT 10SM BKN048 OVC070 20/20 A2989 RMK AO2 T01980198
Pressure 29.89 in
Visibility 10.0 miles
Clouds Mostly Cloudy 4800 ft
Overcast 7000 ft
Dew Point 68 °F
Humidity 94%
Rainfall 0.07 in
Snow Depth Not available.
5:38 AM 8:38 PM
Waning Gibbous, 81% visible
METAR KMDZ 240135Z AUTO 20003KT 10SM BKN048 OVC070 20/20 A2989 RMK AO2 T01980198

10-Day Weather Forecast

Almanac

Astronomy

Jul. 23, 2016 Rise Set
Actual Time
Civil Twilight
Nautical Twilight
Astronomical Twilight
Moon
Length of Visible Light
Length of Day
Tomorrow will be .
, % of the Moon is Illuminated

Today's Extremes

State Highs State Lows

Community

WunderPhotos

Upload Photos

1,926,996 photos uploaded!

WunderBlog® & News

Nearby

Air Quality

  Air Quality AQ Index Pollutant
Not available.

Snow Depth

Station Depth Elevation

Earthquake Activity

City Distance Mag. Time & Date
Minimum magnitude displayed is 2.5.

Coastal Water Temperatures

Place Temperature

Stations

Nearby Weather Stations

Station Location Temp. Windchill Dew Point Humidity Wind Precip. Elev Updated Type
                   

Watches & Warnings

There are currently no watches in effect.